createdAt,value
2017-07-25T00:00:54.993Z,19.73
2017-07-25T00:03:22.541Z,20.23
2017-07-25T00:05:50.078Z,19.87
2017-07-25T00:08:17.634Z,19.40
2017-07-25T00:10:45.148Z,18.30
2017-07-25T00:13:12.661Z,21.33
2017-07-25T00:15:40.210Z,18.30
2017-07-25T00:18:07.719Z,17.20
2017-07-25T00:20:35.265Z,19.00
2017-07-25T00:23:02.790Z,19.33
2017-07-25T00:25:30.393Z,18.70
2017-07-25T00:27:57.909Z,18.50
2017-07-25T00:30:25.433Z,19.77
2017-07-25T00:32:52.989Z,18.70
2017-07-25T00:35:20.496Z,19.50
2017-07-25T00:37:48.060Z,19.03
2017-07-25T00:40:15.644Z,18.63
2017-07-25T00:42:43.153Z,19.60
2017-07-25T00:45:10.698Z,19.43
2017-07-25T00:47:38.286Z,19.13
2017-07-25T00:50:05.793Z,18.03
2017-07-25T00:52:33.308Z,18.60
2017-07-25T00:55:00.845Z,18.30
2017-07-25T00:57:28.393Z,19.30
2017-07-25T00:59:55.990Z,18.70
2017-07-25T01:02:23.507Z,17.37
2017-07-25T01:04:51.022Z,16.63
2017-07-25T01:07:18.588Z,17.03
2017-07-25T01:09:46.109Z,18.90
2017-07-25T01:12:13.612Z,18.20
2017-07-25T01:14:41.162Z,16.63
2017-07-25T01:17:08.665Z,17.40
2017-07-25T01:19:36.230Z,17.60
2017-07-25T01:22:03.745Z,17.50
2017-07-25T01:24:31.290Z,16.70
2017-07-25T01:26:58.843Z,17.57
2017-07-25T01:29:26.357Z,16.80
2017-07-25T01:31:53.874Z,16.03
2017-07-25T01:34:21.469Z,16.60
2017-07-25T01:36:48.993Z,15.83
2017-07-25T01:39:16.542Z,15.70
2017-07-25T01:41:44.061Z,15.37
2017-07-25T01:46:45.257Z,15.83
2017-07-25T01:49:12.811Z,15.70
2017-07-25T01:51:40.326Z,16.27
2017-07-25T01:54:07.921Z,14.03
2017-07-25T01:56:35.440Z,15.80
2017-07-25T01:59:02.962Z,14.97
2017-07-25T02:01:30.509Z,15.67
2017-07-25T02:03:58.021Z,14.03
2017-07-25T02:06:25.571Z,15.30
2017-07-25T02:08:53.085Z,13.90
2017-07-25T02:11:20.637Z,14.57
2017-07-25T02:13:48.204Z,15.37
2017-07-25T02:16:15.753Z,14.00
2017-07-25T02:18:43.281Z,14.20
2017-07-25T02:21:10.854Z,13.83
2017-07-25T02:23:38.367Z,15.33
2017-07-25T02:26:05.878Z,14.67
2017-07-25T02:28:33.420Z,13.50
2017-07-25T02:31:00.927Z,13.80
2017-07-25T02:33:28.520Z,15.03
2017-07-25T02:35:56.062Z,15.23
2017-07-25T02:38:23.568Z,14.20
2017-07-25T02:40:51.151Z,14.70
2017-07-25T02:43:18.704Z,14.13
2017-07-25T02:45:46.260Z,13.33
2017-07-25T02:48:13.804Z,14.17
2017-07-25T02:50:41.356Z,14.80
2017-07-25T02:53:08.863Z,15.70
2017-07-25T02:55:36.418Z,14.60
2017-07-25T02:58:03.925Z,15.20
2017-07-25T03:00:31.446Z,14.13
2017-07-25T03:02:59.002Z,13.40
2017-07-25T03:05:26.549Z,14.00
2017-07-25T03:07:54.118Z,12.77
2017-07-25T03:10:21.672Z,14.47
2017-07-25T03:12:49.225Z,12.47
2017-07-25T03:15:16.784Z,14.13
2017-07-25T03:17:44.346Z,14.47
2017-07-25T03:20:11.913Z,12.90
2017-07-25T03:22:39.439Z,14.13
2017-07-25T03:25:06.985Z,13.93
2017-07-25T03:27:34.563Z,13.73
2017-07-25T03:30:02.098Z,15.20
2017-07-25T03:32:29.608Z,13.40
2017-07-25T03:34:57.197Z,14.47
2017-07-25T03:37:24.748Z,13.70
2017-07-25T03:39:52.313Z,14.80
2017-07-25T03:42:19.867Z,13.90
2017-07-25T03:44:47.381Z,14.77
2017-07-25T03:47:14.937Z,15.30
2017-07-25T03:49:42.476Z,14.60
2017-07-25T03:52:10.057Z,13.87
2017-07-25T03:54:37.558Z,14.13
2017-07-25T03:57:05.117Z,17.17
2017-07-25T03:59:32.631Z,15.33
2017-07-25T04:02:00.172Z,14.90
2017-07-25T04:04:27.713Z,15.90
2017-07-25T04:06:55.314Z,15.77
2017-07-25T04:09:22.853Z,14.77
2017-07-25T04:11:50.385Z,14.90
2017-07-25T04:14:17.969Z,13.17
2017-07-25T04:16:45.476Z,16.03
2017-07-25T04:19:12.992Z,16.67
2017-07-25T04:21:40.553Z,22.07
2017-07-25T04:24:08.085Z,26.67
2017-07-25T04:26:35.600Z,22.73
2017-07-25T04:29:03.177Z,20.53
2017-07-25T04:31:30.701Z,20.07
2017-07-25T04:33:58.222Z,18.10
2017-07-25T04:36:25.821Z,17.80
2017-07-25T04:38:53.332Z,18.47
2017-07-25T04:41:20.864Z,19.53
2017-07-25T04:43:48.419Z,17.70
2017-07-25T04:46:15.965Z,16.90
2017-07-25T04:48:43.524Z,16.83
2017-07-25T04:51:11.094Z,17.23
2017-07-25T04:53:38.606Z,17.20
2017-07-25T04:56:06.126Z,14.80
2017-07-25T04:58:33.717Z,16.77
2017-07-25T05:01:01.277Z,17.60
2017-07-25T05:03:28.833Z,15.40
2017-07-25T05:05:56.459Z,14.83
2017-07-25T05:08:24.045Z,15.83
2017-07-25T05:10:51.604Z,15.50
2017-07-25T05:13:19.207Z,14.90
2017-07-25T05:15:46.827Z,14.13
2017-07-25T05:18:14.342Z,15.30
2017-07-25T05:20:41.852Z,15.60
2017-07-25T05:23:09.441Z,14.07
2017-07-25T05:25:36.957Z,15.50
2017-07-25T05:28:04.488Z,14.70
2017-07-25T05:30:32.062Z,16.20
2017-07-25T05:32:59.614Z,15.27
2017-07-25T05:35:27.165Z,15.23
2017-07-25T05:37:54.801Z,16.40
2017-07-25T05:40:22.411Z,16.00
2017-07-25T05:42:50.761Z,15.13
2017-07-25T05:45:18.395Z,15.70
2017-07-25T05:47:46.660Z,16.30
2017-07-25T05:50:16.042Z,14.90
2017-07-25T05:52:43.741Z,14.67
2017-07-25T05:55:11.305Z,15.03
2017-07-25T05:57:38.989Z,16.83
2017-07-25T06:00:08.667Z,15.53
2017-07-25T06:02:36.804Z,15.80
2017-07-25T06:05:04.418Z,14.77
2017-07-25T06:07:31.994Z,16.10
2017-07-25T06:10:00.409Z,16.37
2017-07-25T06:12:28.086Z,16.77
2017-07-25T06:14:55.872Z,16.47
2017-07-25T06:17:24.177Z,14.83
2017-07-25T06:19:51.893Z,15.60
2017-07-25T06:22:19.839Z,15.73
2017-07-25T06:24:47.717Z,15.93
2017-07-25T06:27:15.498Z,16.03
2017-07-25T06:30:07.872Z,16.93
2017-07-25T06:32:35.507Z,16.00
2017-07-25T06:35:04.121Z,16.47
2017-07-25T06:37:33.015Z,15.27
2017-07-25T06:40:05.001Z,15.03
2017-07-25T06:42:37.233Z,16.07
2017-07-25T06:45:05.430Z,17.07
2017-07-25T06:47:36.677Z,17.03
2017-07-25T06:50:07.566Z,16.50
2017-07-25T06:52:35.392Z,15.20
2017-07-25T06:55:06.395Z,16.53
2017-07-25T06:57:34.125Z,16.37
2017-07-25T07:05:40.673Z,16.67
2017-07-25T07:08:09.248Z,15.43
2017-07-25T07:10:45.530Z,16.60
2017-07-25T07:13:14.439Z,16.47
2017-07-25T07:15:42.597Z,15.47
2017-07-25T07:20:10.155Z,16.80
2017-07-25T07:22:38.253Z,16.40
2017-07-25T07:25:06.071Z,17.70
2017-07-25T07:27:33.866Z,18.47
2017-07-25T07:30:05.522Z,16.80
2017-07-25T07:32:33.418Z,15.27
2017-07-25T07:35:01.092Z,15.67
2017-07-25T07:37:38.695Z,15.97
2017-07-25T07:40:06.726Z,15.20
2017-07-25T07:42:37.427Z,16.33
2017-07-25T07:45:06.081Z,15.00
2017-07-25T07:47:35.880Z,15.17
2017-07-25T08:07:32.524Z,17.53
2017-07-25T08:48:20.285Z,14.17
2017-07-25T08:50:52.352Z,14.50
2017-07-25T08:53:35.006Z,13.37
2017-07-25T08:56:05.415Z,13.63
2017-07-25T08:58:59.734Z,14.07
2017-07-25T09:04:36.682Z,13.80
2017-07-25T09:07:11.050Z,13.87
2017-07-25T09:09:55.173Z,13.60
2017-07-25T09:12:31.739Z,13.70
2017-07-25T09:15:04.304Z,13.40
2017-07-25T09:17:32.498Z,14.57
2017-07-25T09:20:17.105Z,13.50
2017-07-25T09:22:48.617Z,13.40
2017-07-25T09:25:27.320Z,13.20
2017-07-25T09:34:39.933Z,11.70
2017-07-25T09:37:19.544Z,11.57
2017-07-25T09:39:54.575Z,10.07
2017-07-25T09:42:31.799Z,12.57
2017-07-25T09:45:03.366Z,10.40
2017-07-25T09:47:45.917Z,12.57
2017-07-25T09:50:22.450Z,9.80
2017-07-25T09:53:05.354Z,10.80
2017-07-25T09:56:12.788Z,9.60
2017-07-25T10:02:15.249Z,9.33
2017-07-25T10:04:57.520Z,9.80
2017-07-25T10:07:51.454Z,9.93
2017-07-25T10:10:40.787Z,8.97
2017-07-25T10:13:18.585Z,9.23
2017-07-25T10:15:50.889Z,9.10
2017-07-25T10:18:42.913Z,9.30
2017-07-25T10:27:19.142Z,10.17
2017-07-25T10:29:52.992Z,11.60
2017-07-25T10:32:24.595Z,10.43
2017-07-25T10:38:01.799Z,10.90
2017-07-25T10:40:35.651Z,11.00
2017-07-25T10:43:13.167Z,11.57
2017-07-25T10:54:33.871Z,8.33
2017-07-25T11:00:14.524Z,9.70
2017-07-25T11:09:17.322Z,10.70
2017-07-25T11:11:48.191Z,10.00
2017-07-25T11:14:39.094Z,10.60
2017-07-25T11:17:19.314Z,9.77
2017-07-25T11:19:52.886Z,9.33
2017-07-25T11:22:24.483Z,9.33
2017-07-25T11:24:52.795Z,10.00
2017-07-25T11:27:22.345Z,10.47
2017-07-25T11:33:16.588Z,8.10
2017-07-25T11:35:51.785Z,8.47
2017-07-25T11:38:29.274Z,10.07
2017-07-25T11:40:57.702Z,7.57
2017-07-25T11:43:25.716Z,9.70
2017-07-25T11:45:54.925Z,9.20
2017-07-25T11:48:25.191Z,8.93
2017-07-25T11:50:56.380Z,11.00
2017-07-25T11:53:31.288Z,10.90
2017-07-25T11:56:07.794Z,10.10
2017-07-25T11:58:35.942Z,9.33
2017-07-25T12:01:05.286Z,8.33
2017-07-25T12:03:42.602Z,10.07
2017-07-25T12:06:15.845Z,10.77
2017-07-25T12:09:02.268Z,9.30
2017-07-25T12:11:36.270Z,10.77
2017-07-25T12:14:04.461Z,10.27
2017-07-25T12:16:49.720Z,9.43
2017-07-25T12:22:09.415Z,10.33
2017-07-25T12:24:37.079Z,9.70
2017-07-25T12:27:05.059Z,10.07
2017-07-25T12:29:43.307Z,10.43
2017-07-25T12:32:13.688Z,9.80
2017-07-25T12:35:06.673Z,9.30
2017-07-25T12:37:36.889Z,9.20
2017-07-25T12:40:06.383Z,11.00
2017-07-25T12:42:39.146Z,10.33
2017-07-25T12:45:11.099Z,9.50
2017-07-25T12:47:44.435Z,9.27
2017-07-25T12:50:21.284Z,10.00
2017-07-25T12:52:56.589Z,9.50
2017-07-25T12:55:26.140Z,9.93
2017-07-25T12:57:56.922Z,9.10
2017-07-25T13:00:27.274Z,9.67
2017-07-25T13:02:56.545Z,9.33
2017-07-25T13:05:27.874Z,9.20
2017-07-25T13:07:56.804Z,8.97
2017-07-25T13:10:32.142Z,9.87
2017-07-25T13:13:03.057Z,10.10
2017-07-25T13:15:32.917Z,9.40
2017-07-25T13:18:05.205Z,7.90
2017-07-25T13:20:47.691Z,8.13
2017-07-25T13:23:17.427Z,9.87
2017-07-25T13:25:46.090Z,8.20
2017-07-25T13:28:14.887Z,8.77
2017-07-25T13:30:43.492Z,8.90
2017-07-25T13:33:11.658Z,8.50
2017-07-25T13:35:45.789Z,8.07
2017-07-25T13:38:17.457Z,7.13
2017-07-25T13:40:45.961Z,7.10
2017-07-25T13:43:16.390Z,6.40
2017-07-25T13:45:44.911Z,7.23
2017-07-25T13:48:14.929Z,7.50
2017-07-25T13:50:43.601Z,6.73
2017-07-25T13:53:16.371Z,6.47
2017-07-25T13:55:52.217Z,6.63
2017-07-25T13:58:21.139Z,6.70
2017-07-25T14:00:51.128Z,8.03
2017-07-25T14:06:13.203Z,8.70
2017-07-25T14:08:44.658Z,8.80
2017-07-25T14:11:13.499Z,6.80
2017-07-25T14:13:41.429Z,7.87
2017-07-25T14:16:10.495Z,6.87
2017-07-25T14:18:38.336Z,6.83
2017-07-25T14:21:07.444Z,6.50
2017-07-25T14:23:37.038Z,7.03
2017-07-25T14:26:05.843Z,7.97
2017-07-25T14:28:34.134Z,6.80
2017-07-25T14:31:02.645Z,8.13
2017-07-25T14:33:30.826Z,8.97
2017-07-25T14:36:00.472Z,7.57
2017-07-25T14:38:34.266Z,6.77
2017-07-25T14:41:02.058Z,6.90
2017-07-25T14:43:32.344Z,7.73
2017-07-25T14:46:00.966Z,6.50
2017-07-25T14:48:28.844Z,7.83
2017-07-25T14:50:57.364Z,7.00
2017-07-25T14:53:25.564Z,6.20
2017-07-25T14:55:53.323Z,6.57
2017-07-25T14:58:23.333Z,7.70
2017-07-25T15:00:58.250Z,6.83
2017-07-25T15:03:38.321Z,6.93
2017-07-25T15:06:07.072Z,6.97
2017-07-25T15:08:34.799Z,6.40
2017-07-25T15:11:02.670Z,6.13
2017-07-25T15:13:31.456Z,6.17
2017-07-25T15:15:59.118Z,6.40
2017-07-25T15:18:26.722Z,7.63
2017-07-25T15:20:54.284Z,6.07
2017-07-25T15:23:21.954Z,7.20
2017-07-25T15:28:23.838Z,7.43
2017-07-25T15:30:51.442Z,6.87
2017-07-25T15:33:19.078Z,5.60
2017-07-25T15:35:46.782Z,7.23
2017-07-25T15:38:14.352Z,6.90
2017-07-25T15:40:42.377Z,7.03
2017-07-25T15:43:10.017Z,6.03
2017-07-25T15:45:37.525Z,6.60
2017-07-25T15:48:05.145Z,6.20
2017-07-25T15:50:32.915Z,6.20
2017-07-25T15:53:00.459Z,6.93
2017-07-25T15:55:28.027Z,6.50
2017-07-25T15:57:55.616Z,6.50
2017-07-25T16:00:23.816Z,5.43
2017-07-25T16:02:51.421Z,4.80
2017-07-25T16:05:19.023Z,5.77
2017-07-25T16:07:46.638Z,6.10
2017-07-25T16:10:21.490Z,4.17
2017-07-25T16:12:49.313Z,4.63
2017-07-25T16:15:16.849Z,6.20
2017-07-25T16:17:44.441Z,6.00
2017-07-25T16:30:20.269Z,5.40
2017-07-25T16:32:48.167Z,4.53
2017-07-25T16:35:15.710Z,4.60
2017-07-25T16:37:43.292Z,5.10
2017-07-25T16:40:10.826Z,4.00
2017-07-25T16:42:38.390Z,4.17
2017-07-25T16:45:05.945Z,4.60
2017-07-25T16:47:33.480Z,4.00
2017-07-25T16:50:01.146Z,4.70
2017-07-25T16:52:28.675Z,4.00
2017-07-25T16:54:56.216Z,4.70
2017-07-25T16:57:23.778Z,3.47
2017-07-25T16:59:58.878Z,4.80
2017-07-25T17:02:26.449Z,4.03
2017-07-25T17:04:53.951Z,3.80
2017-07-25T17:07:21.498Z,4.50
2017-07-25T17:09:49.100Z,4.50
2017-07-25T17:12:16.620Z,5.10
2017-07-25T17:14:44.117Z,5.17
2017-07-25T17:17:11.677Z,5.10
2017-07-25T17:19:39.176Z,5.37
2017-07-25T17:22:06.727Z,5.40
2017-07-25T17:24:34.245Z,6.07
2017-07-25T17:27:01.801Z,5.70
2017-07-25T17:29:29.377Z,4.80
2017-07-25T17:31:56.969Z,5.63
2017-07-25T17:34:24.487Z,5.40
2017-07-25T17:36:52.138Z,5.00
2017-07-25T17:39:19.700Z,4.90
2017-07-25T17:41:47.356Z,5.67
2017-07-25T17:44:14.917Z,5.10
2017-07-25T17:46:42.465Z,5.30
2017-07-25T17:49:10.012Z,4.47
2017-07-25T17:51:37.511Z,4.80
2017-07-25T17:54:05.073Z,4.57
2017-07-25T17:56:32.596Z,4.57
2017-07-25T17:59:00.157Z,4.47
2017-07-25T18:01:27.661Z,4.37
2017-07-25T18:03:55.199Z,4.73
2017-07-25T18:06:22.748Z,4.43
2017-07-25T18:08:50.305Z,5.13
2017-07-25T18:11:19.668Z,5.03
2017-07-25T18:13:47.303Z,4.60
2017-07-25T18:16:14.878Z,5.57
2017-07-25T18:18:42.393Z,4.70
2017-07-25T18:21:09.901Z,4.57
2017-07-25T18:23:37.465Z,5.13
2017-07-25T18:26:04.969Z,5.23
2017-07-25T18:28:32.498Z,6.03
2017-07-25T18:31:00.057Z,5.27
2017-07-25T18:33:27.580Z,4.90
2017-07-25T18:35:55.090Z,5.03
2017-07-25T18:38:22.648Z,5.57
2017-07-25T18:40:50.177Z,4.13
2017-07-25T18:43:17.730Z,4.90
2017-07-25T18:45:45.295Z,4.70
2017-07-25T18:48:12.823Z,3.90
2017-07-25T18:50:40.361Z,4.27
2017-07-25T18:53:07.882Z,4.87
2017-07-25T18:55:35.423Z,6.00
2017-07-25T18:58:02.917Z,5.40
2017-07-25T19:00:30.465Z,4.93
2017-07-25T19:02:57.968Z,4.67
2017-07-25T19:05:25.553Z,5.40
2017-07-25T19:07:53.073Z,4.53
2017-07-25T19:10:20.589Z,4.67
2017-07-25T19:12:48.176Z,3.93
2017-07-25T19:15:15.709Z,4.83
2017-07-25T19:17:43.247Z,4.80
2017-07-25T19:20:18.631Z,4.10
2017-07-25T19:22:46.173Z,4.67
2017-07-25T19:25:13.689Z,3.93
2017-07-25T19:27:41.253Z,4.50
2017-07-25T19:40:17.539Z,4.57
2017-07-25T19:42:45.040Z,4.60
2017-07-25T19:45:12.577Z,4.33
2017-07-25T19:47:40.130Z,3.90
2017-07-25T20:00:16.275Z,4.77
2017-07-25T20:02:43.829Z,5.40
2017-07-25T20:05:11.333Z,4.33
2017-07-25T20:07:38.897Z,5.17
2017-07-25T20:10:06.406Z,4.70
2017-07-25T20:12:33.929Z,5.13
2017-07-25T20:15:01.485Z,4.40
2017-07-25T20:17:28.991Z,4.67
2017-07-25T20:19:56.509Z,4.83
2017-07-25T20:22:24.064Z,4.17
2017-07-25T20:24:51.575Z,4.40
2017-07-25T20:27:19.134Z,4.17
2017-07-25T20:29:46.738Z,5.00
2017-07-25T20:32:14.300Z,4.37
2017-07-25T20:34:41.805Z,5.07
2017-07-25T20:37:09.320Z,4.20
2017-07-25T20:39:36.854Z,4.60
2017-07-25T20:42:04.384Z,4.70
2017-07-25T20:44:31.962Z,4.27
2017-07-25T20:46:59.466Z,4.80
2017-07-25T20:49:27.005Z,3.93
2017-07-25T20:51:54.553Z,3.37
2017-07-25T20:54:22.078Z,4.60
2017-07-25T20:56:49.739Z,5.10
2017-07-25T20:59:17.381Z,4.70
2017-07-25T21:01:44.900Z,4.10
2017-07-25T21:04:12.405Z,4.23
2017-07-25T21:06:39.962Z,4.90
2017-07-25T21:09:07.481Z,4.80
2017-07-25T21:11:34.983Z,4.13
2017-07-25T21:14:02.567Z,4.50
2017-07-25T21:16:30.068Z,4.57
2017-07-25T21:18:57.612Z,4.60
2017-07-25T21:21:25.132Z,4.30
2017-07-25T21:23:52.641Z,4.40
2017-07-25T21:26:20.241Z,4.73
2017-07-25T21:28:47.813Z,4.27
2017-07-25T21:31:15.351Z,4.00
2017-07-25T21:33:42.953Z,4.47
2017-07-25T21:36:10.458Z,4.60
2017-07-25T21:41:28.288Z,4.13
2017-07-25T21:43:55.826Z,4.17
2017-07-25T21:46:23.400Z,4.80
2017-07-25T21:48:50.912Z,3.90
2017-07-25T21:51:18.417Z,4.70
2017-07-25T21:53:46.002Z,4.27
2017-07-25T21:56:13.496Z,5.10
2017-07-25T21:58:48.026Z,4.23
2017-07-25T22:01:15.554Z,4.37
2017-07-25T22:03:43.091Z,4.00
2017-07-25T22:20:27.859Z,4.63
2017-07-25T22:22:55.433Z,4.10
2017-07-25T22:25:22.933Z,4.77
2017-07-25T22:27:50.445Z,4.60
2017-07-25T22:30:25.221Z,4.10
2017-07-25T22:32:52.713Z,3.73
2017-07-25T22:35:20.238Z,3.90
2017-07-25T22:37:47.854Z,4.03
2017-07-25T22:50:24.865Z,4.50
2017-07-25T22:52:52.444Z,4.20
2017-07-25T22:55:19.941Z,4.40
2017-07-25T22:57:47.457Z,5.10
2017-07-25T23:00:15.009Z,3.87
2017-07-25T23:02:42.510Z,4.53
2017-07-25T23:05:10.009Z,3.63
2017-07-25T23:07:37.585Z,4.17
2017-07-25T23:10:05.085Z,4.00
2017-07-25T23:12:32.585Z,4.30
2017-07-25T23:15:00.144Z,3.87
2017-07-25T23:17:27.661Z,3.77
2017-07-25T23:19:55.241Z,3.83
2017-07-25T23:22:22.759Z,4.20
2017-07-25T23:24:50.299Z,4.00
2017-07-25T23:27:17.886Z,4.43
2017-07-25T23:29:45.415Z,4.60
2017-07-25T23:32:12.965Z,4.20
2017-07-25T23:34:40.494Z,4.20
2017-07-25T23:37:08.020Z,4.13
2017-07-25T23:39:35.569Z,4.43
2017-07-25T23:42:03.078Z,3.90
2017-07-25T23:44:30.573Z,3.70
2017-07-25T23:46:58.113Z,3.93
2017-07-25T23:49:25.619Z,3.20
2017-07-25T23:51:53.168Z,3.20
2017-07-25T23:54:20.672Z,3.53
2017-07-25T23:56:48.192Z,4.20
2017-07-25T23:59:23.119Z,3.97
